createdAt,value
2019-05-05T00:01:34.425Z,7.00
2019-05-05T00:04:24.266Z,6.90
2019-05-05T00:06:54.821Z,7.10
2019-05-05T00:09:25.262Z,6.80
2019-05-05T00:12:25.233Z,6.13
2019-05-05T00:15:19.175Z,6.10
2019-05-05T00:17:47.865Z,7.00
2019-05-05T00:20:16.645Z,6.13
2019-05-05T00:22:45.544Z,6.57
2019-05-05T00:25:14.523Z,6.37
2019-05-05T00:27:45.265Z,6.63
2019-05-05T00:30:14.520Z,6.80
2019-05-05T00:32:44.272Z,6.17
2019-05-05T00:35:14.856Z,6.40
2019-05-05T00:37:45.050Z,6.20
2019-05-05T00:40:14.423Z,6.33
2019-05-05T00:42:43.139Z,6.20
2019-05-05T00:45:12.162Z,6.23
2019-05-05T00:47:46.398Z,6.27
2019-05-05T00:50:17.768Z,6.10
2019-05-05T00:52:46.399Z,5.80
2019-05-05T00:55:15.233Z,6.27
2019-05-05T00:57:45.345Z,6.27
2019-05-05T01:00:24.429Z,5.63
2019-05-05T01:02:54.173Z,5.90
2019-05-05T01:05:31.459Z,5.10
2019-05-05T01:08:00.436Z,5.93
2019-05-05T01:10:29.053Z,5.47
2019-05-05T01:12:57.783Z,5.07
2019-05-05T01:15:26.669Z,5.07
2019-05-05T01:17:55.418Z,4.80
2019-05-05T01:20:25.034Z,4.83
2019-05-05T01:22:55.272Z,4.77
2019-05-05T01:25:25.368Z,4.77
2019-05-05T01:27:55.388Z,4.20
2019-05-05T01:30:29.013Z,4.93
2019-05-05T01:33:05.468Z,4.63
2019-05-05T01:35:34.312Z,4.53
2019-05-05T01:38:08.951Z,4.43
2019-05-05T01:41:04.239Z,4.80
2019-05-05T01:43:34.640Z,4.47
2019-05-05T01:46:05.060Z,4.70
2019-05-05T01:48:35.067Z,4.97
2019-05-05T01:51:05.050Z,5.33
2019-05-05T01:53:35.016Z,5.80
2019-05-05T01:56:04.855Z,5.37
2019-05-05T01:58:34.928Z,5.10
2019-05-05T02:01:05.026Z,4.90
2019-05-05T02:03:35.015Z,5.37
2019-05-05T02:06:05.255Z,5.10
2019-05-05T02:08:34.991Z,4.57
2019-05-05T02:11:05.171Z,4.77
2019-05-05T02:13:34.621Z,4.73
2019-05-05T02:16:04.594Z,4.43
2019-05-05T02:18:34.603Z,4.00
2019-05-05T02:21:05.504Z,3.90
2019-05-05T02:23:35.510Z,3.80
2019-05-05T02:26:04.901Z,3.50
2019-05-05T02:28:41.059Z,3.80
2019-05-05T02:31:25.649Z,4.17
2019-05-05T02:33:56.829Z,3.50
2019-05-05T02:36:25.721Z,3.13
2019-05-05T02:38:56.773Z,3.30
2019-05-05T02:41:26.039Z,3.50
2019-05-05T02:43:55.885Z,2.10
2019-05-05T02:46:36.657Z,2.27
2019-05-05T02:49:05.869Z,2.27
2019-05-05T02:51:35.804Z,1.90
2019-05-05T02:54:04.833Z,1.93
2019-05-05T02:56:43.883Z,1.73
2019-05-05T02:59:20.057Z,2.00
2019-05-05T03:01:53.877Z,1.87
2019-05-05T03:04:24.436Z,1.60
2019-05-05T03:10:15.358Z,1.13
2019-05-05T03:12:44.537Z,1.07
2019-05-05T03:15:21.372Z,1.20
2019-05-05T03:17:50.127Z,1.10
2019-05-05T03:20:18.866Z,1.10
2019-05-05T03:22:47.557Z,1.20
2019-05-05T03:25:16.324Z,1.27
2019-05-05T03:27:44.952Z,1.43
2019-05-05T03:30:15.471Z,1.23
2019-05-05T03:32:45.558Z,1.20
2019-05-05T03:35:14.575Z,1.20
2019-05-05T03:37:44.606Z,1.20
2019-05-05T03:40:20.142Z,1.00
2019-05-05T03:42:55.212Z,1.20
2019-05-05T03:45:34.575Z,1.10
2019-05-05T03:48:04.629Z,1.00
2019-05-05T03:50:34.134Z,1.00
2019-05-05T03:53:04.838Z,0.90
2019-05-05T03:55:34.786Z,1.00
2019-05-05T03:58:04.119Z,1.07
2019-05-05T04:01:50.575Z,1.30
2019-05-05T04:04:24.470Z,1.10
2019-05-05T04:06:54.190Z,1.00
2019-05-05T04:09:24.259Z,1.13
2019-05-05T04:11:54.276Z,1.10
2019-05-05T04:14:24.992Z,1.00
2019-05-05T04:17:14.160Z,1.10
2019-05-05T04:19:45.759Z,1.10
2019-05-05T04:22:14.494Z,1.00
2019-05-05T04:24:43.678Z,1.00
2019-05-05T04:27:14.385Z,0.90
2019-05-05T04:29:43.997Z,1.00
2019-05-05T04:32:14.832Z,1.00
2019-05-05T04:34:44.803Z,0.90
2019-05-05T04:37:14.936Z,0.90
2019-05-05T04:39:44.495Z,1.10
2019-05-05T04:42:14.524Z,1.00
2019-05-05T04:44:44.897Z,1.17
2019-05-05T04:47:20.350Z,0.72
2019-05-05T04:49:55.564Z,1.00
2019-05-05T04:52:25.135Z,1.20
2019-05-05T04:54:55.691Z,0.90
2019-05-05T04:57:25.365Z,1.00
2019-05-05T04:59:54.189Z,1.00
2019-05-05T05:02:40.785Z,1.00
2019-05-05T05:05:25.946Z,0.90
2019-05-05T05:07:57.814Z,1.23
2019-05-05T05:10:24.847Z,1.00
2019-05-05T05:12:53.991Z,0.87
2019-05-05T05:15:23.869Z,1.10
2019-05-05T05:17:59.821Z,1.17
2019-05-05T05:20:28.513Z,1.17
2019-05-05T05:22:57.156Z,1.10
2019-05-05T05:25:25.905Z,1.20
2019-05-05T05:27:54.757Z,1.20
2019-05-05T05:30:26.259Z,1.10
2019-05-05T05:32:56.573Z,1.30
2019-05-05T05:35:25.637Z,1.13
2019-05-05T05:37:57.636Z,1.20
2019-05-05T05:40:45.035Z,1.30
2019-05-05T05:43:18.387Z,1.10
2019-05-05T05:46:15.211Z,1.10
2019-05-05T05:49:07.096Z,1.20
2019-05-05T05:51:36.704Z,1.20
2019-05-05T05:54:06.002Z,1.10
2019-05-05T05:56:38.235Z,1.20
2019-05-05T05:59:08.110Z,1.17
2019-05-05T06:01:37.053Z,1.00
2019-05-05T06:04:08.902Z,1.10
2019-05-05T06:06:38.219Z,1.20
2019-05-05T06:09:07.217Z,1.13
2019-05-05T06:11:36.249Z,1.30
2019-05-05T06:14:05.408Z,1.20
2019-05-05T06:16:34.596Z,1.00
2019-05-05T06:19:03.731Z,1.40
2019-05-05T06:21:33.744Z,1.40
2019-05-05T06:24:04.448Z,1.17
2019-05-05T06:26:34.405Z,1.20
2019-05-05T06:29:04.401Z,1.30
2019-05-05T06:31:34.259Z,1.10
2019-05-05T06:34:04.930Z,1.03
2019-05-05T06:36:34.182Z,1.00
2019-05-05T06:39:06.670Z,1.10
2019-05-05T06:41:51.500Z,0.93
2019-05-05T06:44:29.377Z,1.20
2019-05-05T06:47:10.439Z,1.10
2019-05-05T06:49:39.763Z,1.40
2019-05-05T06:52:08.944Z,1.50
2019-05-05T06:54:38.541Z,1.50
2019-05-05T06:57:08.062Z,2.00
2019-05-05T06:59:37.117Z,2.30
2019-05-05T07:02:05.865Z,3.13
2019-05-05T07:04:34.632Z,2.80
2019-05-05T07:07:04.923Z,2.67
2019-05-05T07:09:33.750Z,1.93
2019-05-05T07:12:07.507Z,1.53
2019-05-05T07:14:36.312Z,1.20
2019-05-05T07:17:05.279Z,1.00
2019-05-05T07:19:34.574Z,1.30
2019-05-05T07:22:04.102Z,1.20
2019-05-05T07:24:34.556Z,1.30
2019-05-05T07:27:04.782Z,1.10
2019-05-05T07:29:34.348Z,1.27
2019-05-05T07:32:04.342Z,1.10
2019-05-05T07:34:54.478Z,1.23
2019-05-05T07:37:23.858Z,1.10
2019-05-05T07:39:54.029Z,1.30
2019-05-05T07:42:24.298Z,1.30
2019-05-05T07:44:54.706Z,1.30
2019-05-05T07:47:23.887Z,1.20
2019-05-05T07:49:53.594Z,1.40
2019-05-05T07:52:23.773Z,1.27
2019-05-05T07:54:55.010Z,1.20
2019-05-05T07:57:23.871Z,1.40
2019-05-05T07:59:53.994Z,1.50
2019-05-05T08:02:23.667Z,1.70
2019-05-05T08:04:54.409Z,1.30
2019-05-05T08:07:24.005Z,1.37
2019-05-05T08:09:53.741Z,1.40
2019-05-05T08:12:24.664Z,1.20
2019-05-05T08:14:53.714Z,1.40
2019-05-05T08:17:40.736Z,1.30
2019-05-05T08:20:15.558Z,1.40
2019-05-05T08:22:44.402Z,1.60
2019-05-05T08:25:37.450Z,1.20
2019-05-05T08:28:14.772Z,1.40
2019-05-05T08:31:21.414Z,1.40
2019-05-05T08:33:50.046Z,1.30
2019-05-05T08:36:18.792Z,1.53
2019-05-05T08:38:47.568Z,1.50
2019-05-05T08:41:16.260Z,2.17
2019-05-05T08:43:45.027Z,1.80
2019-05-05T08:46:14.332Z,1.50
2019-05-05T08:48:44.694Z,1.50
2019-05-05T08:51:14.229Z,1.60
2019-05-05T08:53:47.872Z,1.50
2019-05-05T08:56:14.622Z,1.50
2019-05-05T08:58:43.826Z,1.70
2019-05-05T09:01:14.851Z,2.07
2019-05-05T09:03:44.296Z,1.60
2019-05-05T09:06:13.883Z,1.80
2019-05-05T09:08:44.183Z,1.70
2019-05-05T09:11:14.053Z,1.73
2019-05-05T09:13:44.632Z,1.70
2019-05-05T09:16:14.480Z,1.40
2019-05-05T09:19:14.518Z,1.97
2019-05-05T09:21:44.611Z,2.07
2019-05-05T09:24:44.418Z,2.60
2019-05-05T09:27:24.835Z,2.27
2019-05-05T09:29:55.013Z,2.93
2019-05-05T09:32:24.314Z,2.73
2019-05-05T09:34:54.041Z,1.97
2019-05-05T09:37:24.686Z,1.77
2019-05-05T09:39:54.130Z,1.80
2019-05-05T09:42:23.650Z,2.20
2019-05-05T09:44:54.133Z,1.80
2019-05-05T09:47:24.034Z,1.70
2019-05-05T09:49:54.790Z,4.40
2019-05-05T09:52:24.438Z,2.33
2019-05-05T09:54:54.398Z,2.00
2019-05-05T09:57:23.974Z,1.57
2019-05-05T09:59:55.242Z,1.90
2019-05-05T10:02:24.232Z,1.70
2019-05-05T10:04:54.592Z,1.53
2019-05-05T10:07:24.208Z,1.40
2019-05-05T10:09:54.247Z,1.87
2019-05-05T10:12:23.286Z,1.43
2019-05-05T10:14:54.049Z,1.50
2019-05-05T10:17:24.262Z,1.70
2019-05-05T10:19:54.615Z,1.60
2019-05-05T10:22:23.899Z,1.20
2019-05-05T10:24:57.573Z,1.30
2019-05-05T10:27:26.540Z,1.30
2019-05-05T10:29:55.309Z,1.40
2019-05-05T10:32:24.514Z,1.33
2019-05-05T10:35:04.171Z,1.40
2019-05-05T10:37:34.474Z,1.30
2019-05-05T10:40:03.634Z,1.40
2019-05-05T10:42:50.514Z,1.40
2019-05-05T10:45:24.224Z,1.30
2019-05-05T10:47:52.920Z,1.40
2019-05-05T10:50:21.649Z,2.20
2019-05-05T10:52:50.359Z,1.70
2019-05-05T10:55:19.362Z,1.47
2019-05-05T10:57:49.064Z,1.20
2019-05-05T11:01:00.571Z,1.20
2019-05-05T11:03:29.452Z,1.20
2019-05-05T11:05:58.137Z,1.13
2019-05-05T11:08:30.582Z,1.30
2019-05-05T11:10:58.578Z,1.23
2019-05-05T11:13:27.427Z,1.30
2019-05-05T11:15:56.308Z,1.20
2019-05-05T11:18:25.049Z,1.27
2019-05-05T11:20:54.827Z,1.30
2019-05-05T11:23:24.935Z,1.10
2019-05-05T11:25:54.523Z,1.30
2019-05-05T11:28:23.503Z,1.10
2019-05-05T11:30:53.755Z,1.20
2019-05-05T11:33:47.465Z,1.10
2019-05-05T11:36:50.263Z,0.87
2019-05-05T11:39:19.131Z,1.10
2019-05-05T11:41:47.639Z,1.00
2019-05-05T11:44:17.421Z,1.03
2019-05-05T11:46:46.182Z,1.03
2019-05-05T11:49:14.902Z,1.10
2019-05-05T11:51:43.830Z,1.30
2019-05-05T11:54:14.061Z,1.30
2019-05-05T11:56:44.677Z,1.10
2019-05-05T11:59:14.403Z,1.30
2019-05-05T12:01:44.072Z,1.10
2019-05-05T12:04:14.689Z,1.20
2019-05-05T12:06:44.288Z,1.10
2019-05-05T12:09:24.804Z,1.37
2019-05-05T12:11:54.577Z,1.17
2019-05-05T12:14:27.209Z,1.20
2019-05-05T12:16:56.043Z,1.20
2019-05-05T12:19:24.605Z,1.30
2019-05-05T12:21:54.857Z,1.20
2019-05-05T12:24:28.439Z,1.30
2019-05-05T12:27:15.324Z,1.20
2019-05-05T12:29:48.627Z,1.20
2019-05-05T12:32:17.178Z,1.10
2019-05-05T12:34:46.030Z,1.20
2019-05-05T12:37:14.883Z,1.10
2019-05-05T12:39:44.259Z,1.20
2019-05-05T12:42:14.064Z,1.10
2019-05-05T12:44:53.737Z,1.13
2019-05-05T12:47:56.973Z,1.30
2019-05-05T12:50:26.767Z,1.30
2019-05-05T12:52:55.645Z,1.00
2019-05-05T12:55:38.316Z,1.40
2019-05-05T12:57:55.317Z,1.30
2019-05-05T13:00:24.802Z,1.20
2019-05-05T13:02:54.831Z,1.30
2019-05-05T13:05:23.729Z,1.40
2019-05-05T13:07:52.767Z,3.43
2019-05-05T13:10:21.875Z,3.90
2019-05-05T13:12:50.627Z,4.03
2019-05-05T13:15:19.463Z,1.97
2019-05-05T13:17:48.305Z,1.50
2019-05-05T13:20:24.680Z,2.00
2019-05-05T13:23:15.508Z,1.70
2019-05-05T13:25:58.486Z,2.10
2019-05-05T13:28:24.290Z,1.70
2019-05-05T13:30:54.082Z,1.50
2019-05-05T13:33:24.639Z,1.20
2019-05-05T13:35:53.846Z,1.20
2019-05-05T13:38:23.966Z,1.60
2019-05-05T13:40:54.422Z,1.80
2019-05-05T13:43:23.772Z,1.93
2019-05-05T13:46:24.729Z,1.43
2019-05-05T13:48:53.898Z,1.30
2019-05-05T13:51:23.998Z,1.30
2019-05-05T13:53:54.002Z,2.20
2019-05-05T13:56:24.447Z,3.50
2019-05-05T13:58:53.340Z,1.40
2019-05-05T14:01:23.738Z,1.50
2019-05-05T14:03:54.156Z,2.97
2019-05-05T14:06:24.283Z,2.33
2019-05-05T14:08:54.048Z,1.60
2019-05-05T14:11:24.695Z,1.50
2019-05-05T14:13:53.408Z,1.50
2019-05-05T14:16:22.084Z,2.13
2019-05-05T14:18:50.679Z,1.83
2019-05-05T14:21:19.433Z,1.83
2019-05-05T14:24:03.662Z,2.77
2019-05-05T14:26:32.401Z,2.10
2019-05-05T14:29:04.311Z,2.37
2019-05-05T14:32:36.578Z,2.20
2019-05-05T14:35:23.764Z,2.07
2019-05-05T14:37:55.314Z,2.23
2019-05-05T14:40:25.196Z,2.27
2019-05-05T14:42:54.008Z,2.27
2019-05-05T14:45:23.485Z,2.83
2019-05-05T14:47:53.460Z,3.00
2019-05-05T14:50:24.215Z,2.07
2019-05-05T14:52:53.486Z,2.37
2019-05-05T14:55:25.446Z,3.33
2019-05-05T14:57:53.764Z,2.20
2019-05-05T15:00:24.224Z,2.00
2019-05-05T15:02:54.531Z,3.20
2019-05-05T15:05:58.144Z,1.83
2019-05-05T15:08:55.109Z,1.60
2019-05-05T15:11:49.385Z,1.60
2019-05-05T15:14:18.034Z,1.67
2019-05-05T15:16:46.757Z,1.80
2019-05-05T15:19:15.553Z,1.93
2019-05-05T15:21:45.268Z,1.90
2019-05-05T15:24:14.198Z,1.97
2019-05-05T15:26:51.267Z,1.80
2019-05-05T15:29:14.990Z,1.93
2019-05-05T15:31:48.963Z,2.43
2019-05-05T15:34:18.538Z,2.80
2019-05-05T15:36:47.464Z,3.23
2019-05-05T15:39:16.036Z,3.07
2019-05-05T15:41:44.888Z,2.67
2019-05-05T15:44:13.602Z,2.83
2019-05-05T15:46:44.160Z,2.40
2019-05-05T15:49:13.400Z,2.20
2019-05-05T15:51:41.987Z,2.40
2019-05-05T15:54:13.962Z,2.40
2019-05-05T15:56:43.427Z,2.13
2019-05-05T15:59:14.223Z,2.43
2019-05-05T16:01:43.949Z,2.40
2019-05-05T16:04:15.520Z,2.23
2019-05-05T16:06:45.387Z,2.20
2019-05-05T16:09:14.187Z,2.00
2019-05-05T16:11:44.431Z,2.40
2019-05-05T16:14:14.423Z,2.70
2019-05-05T16:16:56.034Z,2.63
2019-05-05T16:19:48.450Z,5.47
2019-05-05T16:22:25.491Z,4.03
2019-05-05T16:25:16.062Z,7.73
2019-05-05T16:27:48.680Z,5.43
2019-05-05T16:30:18.739Z,4.10
2019-05-05T16:32:48.529Z,2.80
2019-05-05T16:35:19.033Z,2.47
2019-05-05T16:37:47.736Z,2.50
2019-05-05T16:40:19.865Z,2.40
2019-05-05T16:42:48.765Z,3.10
2019-05-05T16:45:18.178Z,3.30
2019-05-05T16:47:48.859Z,2.67
2019-05-05T16:50:17.679Z,3.33
2019-05-05T16:52:54.482Z,3.50
2019-05-05T16:55:42.381Z,4.10
2019-05-05T16:58:13.771Z,4.13
2019-05-05T17:00:43.957Z,3.50
2019-05-05T17:03:13.491Z,3.57
2019-05-05T17:07:11.518Z,3.23
2019-05-05T17:09:40.206Z,3.40
2019-05-05T17:12:08.826Z,3.73
2019-05-05T17:15:05.528Z,3.67
2019-05-05T17:17:57.459Z,2.60
2019-05-05T17:20:27.308Z,4.00
2019-05-05T17:23:00.081Z,4.80
2019-05-05T17:25:28.902Z,3.10
2019-05-05T17:27:57.637Z,5.33
2019-05-05T17:30:27.210Z,2.80
2019-05-05T17:32:56.033Z,3.63
2019-05-05T17:35:24.693Z,2.40
2019-05-05T17:38:20.107Z,6.07
2019-05-05T17:41:14.023Z,7.90
2019-05-05T17:44:03.357Z,8.00
2019-05-05T17:46:53.811Z,4.90
2019-05-05T17:49:31.829Z,3.30
2019-05-05T17:52:26.297Z,3.93
2019-05-05T17:54:57.626Z,4.20
2019-05-05T17:57:26.278Z,3.30
2019-05-05T17:59:54.835Z,4.30
2019-05-05T18:02:23.763Z,4.87
2019-05-05T18:04:54.121Z,5.10
2019-05-05T18:07:36.060Z,6.87
2019-05-05T18:10:19.162Z,5.33
2019-05-05T18:13:14.196Z,5.33
2019-05-05T18:16:14.109Z,3.60
2019-05-05T18:18:44.460Z,8.10
2019-05-05T18:21:14.232Z,3.97
2019-05-05T18:23:43.906Z,3.37
2019-05-05T18:26:13.692Z,3.20
2019-05-05T18:28:44.361Z,3.40
2019-05-05T18:31:13.914Z,3.70
2019-05-05T18:33:43.214Z,3.77
2019-05-05T18:36:14.033Z,3.63
2019-05-05T18:38:44.269Z,3.80
2019-05-05T18:41:20.461Z,4.23
2019-05-05T18:43:59.091Z,5.00
2019-05-05T18:46:27.848Z,4.57
2019-05-05T18:48:58.474Z,3.90
2019-05-05T18:51:28.407Z,4.73
2019-05-05T18:53:57.694Z,5.57
2019-05-05T18:56:27.066Z,6.47
2019-05-05T18:58:58.855Z,4.30
2019-05-05T19:01:49.282Z,4.97
2019-05-05T19:04:34.732Z,4.07
2019-05-05T19:07:19.416Z,4.33
2019-05-05T19:09:53.958Z,3.40
2019-05-05T19:12:19.259Z,3.47
2019-05-05T19:14:47.770Z,3.17
2019-05-05T19:17:16.341Z,3.20
2019-05-05T19:19:48.801Z,2.90
2019-05-05T19:22:17.331Z,2.80
2019-05-05T19:24:45.991Z,2.80
2019-05-05T19:27:14.756Z,2.80
2019-05-05T19:29:44.185Z,2.70
2019-05-05T19:32:14.552Z,2.70
2019-05-05T19:34:43.926Z,2.97
2019-05-05T19:37:14.029Z,2.57
2019-05-05T19:39:42.777Z,2.83
2019-05-05T19:42:11.437Z,3.37
2019-05-05T19:44:39.970Z,3.63
2019-05-05T19:47:19.708Z,3.20
2019-05-05T19:49:54.927Z,3.30
2019-05-05T19:52:24.009Z,3.10
2019-05-05T19:54:54.714Z,3.70
2019-05-05T19:57:23.504Z,17.83
2019-05-05T19:59:54.158Z,16.47
2019-05-05T20:02:23.615Z,9.30
2019-05-05T20:04:53.742Z,5.80
2019-05-05T20:07:24.661Z,3.93
2019-05-05T20:09:54.381Z,3.87
2019-05-05T20:12:23.136Z,4.10
2019-05-05T20:14:51.832Z,4.93
2019-05-05T20:17:33.709Z,4.40
2019-05-05T20:20:04.474Z,4.00
2019-05-05T20:22:34.807Z,3.07
2019-05-05T20:25:04.409Z,3.40
2019-05-05T20:27:34.315Z,3.30
2019-05-05T20:30:06.231Z,2.90
2019-05-05T20:32:41.405Z,3.00
2019-05-05T20:35:27.676Z,2.83
2019-05-05T20:38:24.516Z,2.93
2019-05-05T20:41:11.024Z,4.03
2019-05-05T20:43:39.942Z,3.97
2019-05-05T20:46:09.416Z,2.67
2019-05-05T20:48:41.029Z,2.90
2019-05-05T20:51:08.617Z,3.07
2019-05-05T20:53:37.296Z,3.00
2019-05-05T20:56:06.095Z,2.77
2019-05-05T20:58:34.879Z,2.70
2019-05-05T21:01:04.633Z,2.80
2019-05-05T21:03:34.698Z,3.03
2019-05-05T21:06:04.408Z,3.20
2019-05-05T21:08:34.877Z,2.97
2019-05-05T21:11:04.539Z,2.90
2019-05-05T21:13:34.159Z,2.73
2019-05-05T21:16:03.237Z,2.70
2019-05-05T21:18:31.863Z,2.80
2019-05-05T21:21:04.355Z,2.27
2019-05-05T21:23:52.061Z,2.60
2019-05-05T21:26:25.036Z,2.80
2019-05-05T21:28:53.894Z,3.00
2019-05-05T21:31:23.961Z,2.80
2019-05-05T21:33:54.891Z,2.53
2019-05-05T21:36:24.314Z,2.60
2019-05-05T21:38:54.761Z,2.90
2019-05-05T21:41:24.399Z,2.80
2019-05-05T21:43:54.079Z,2.57
2019-05-05T21:46:23.991Z,2.70
2019-05-05T21:48:54.400Z,2.80
2019-05-05T21:51:51.566Z,2.90
2019-05-05T21:54:39.031Z,2.90
2019-05-05T21:57:34.592Z,2.23
2019-05-05T22:00:07.160Z,2.40
2019-05-05T22:02:37.557Z,2.40
2019-05-05T22:05:06.571Z,2.60
2019-05-05T22:07:35.354Z,2.40
2019-05-05T22:10:04.579Z,2.70
2019-05-05T22:12:36.122Z,2.70
2019-05-05T22:15:04.369Z,2.63
2019-05-05T22:17:36.316Z,2.60
2019-05-05T22:20:14.233Z,2.60
2019-05-05T22:22:45.001Z,2.83
2019-05-05T22:25:14.185Z,2.70
2019-05-05T22:27:44.150Z,2.60
2019-05-05T22:30:14.154Z,2.97
2019-05-05T22:32:44.118Z,3.03
2019-05-05T22:35:14.043Z,3.00
2019-05-05T22:37:44.275Z,3.20
2019-05-05T22:40:19.696Z,3.30
2019-05-05T22:42:48.521Z,2.73
2019-05-05T22:45:17.519Z,3.33
2019-05-05T22:47:46.317Z,3.27
2019-05-05T22:50:15.562Z,3.30
2019-05-05T22:52:44.718Z,3.13
2019-05-05T22:55:13.931Z,3.10
2019-05-05T22:57:45.093Z,3.30
2019-05-05T23:00:25.674Z,3.30
2019-05-05T23:02:54.399Z,3.47
2019-05-05T23:05:50.931Z,3.20
2019-05-05T23:08:19.728Z,3.53
2019-05-05T23:10:48.321Z,3.13
2019-05-05T23:13:17.119Z,3.40
2019-05-05T23:15:54.339Z,3.30
2019-05-05T23:18:25.732Z,2.93
2019-05-05T23:21:19.773Z,3.40
2019-05-05T23:24:23.794Z,3.50
2019-05-05T23:26:54.607Z,3.10
2019-05-05T23:29:24.210Z,3.10
2019-05-05T23:31:53.965Z,3.37
2019-05-05T23:34:24.245Z,3.87
2019-05-05T23:36:53.585Z,3.57
2019-05-05T23:39:24.154Z,3.40
2019-05-05T23:41:54.697Z,3.17
2019-05-05T23:44:23.831Z,3.17
2019-05-05T23:46:53.761Z,3.10
2019-05-05T23:49:24.261Z,3.17
2019-05-05T23:51:53.906Z,3.20
2019-05-05T23:54:24.699Z,3.47
2019-05-05T23:56:53.896Z,3.33
2019-05-05T23:59:24.067Z,3.47
